Terminal Aerodrome Forecast
Issued by NWS Knoxville/Tri Cities, TN

Home | Current Version | Previous Version | Text Only | Print | Product List | Glossary On
Versions: 1 2 3 4 5 6 7 8 9 10 11 12 13 14 15 16 17 18 19 20 21 22 23 24 25 26 27 28 29 30 31 32 33 34 35
000
FTUS44 KMRX 051721
TAFTYS
TAF
KTYS 051721Z 0518/0618 24011KT P6SM VCTS SCT025CB BKN035
      TEMPO 0518/0521 -SHRA SCT015 OVC025
     FM060000 25008KT P6SM SCT025 BKN100
     FM060800 23004KT 5SM BR BKN020
     FM061300 23005KT P6SM BKN030
     FM061500 23008KT P6SM SCT035=

USA.gov is the U.S. government's official web portal to all federal, state and local government web resources and services.